sensor_id;sensor_type;location;lat;lon;timestamp;P1;durP1;ratioP1;P2;durP2;ratioP2
52962;SDS011;38827;53.024;6.596;2023-07-13T00:02:05;9.18;;;2.45;;
52962;SDS011;38827;53.024;6.596;2023-07-13T00:04:31;11.57;;;2.35;;
52962;SDS011;38827;53.024;6.596;2023-07-13T00:06:58;9.73;;;2.40;;
52962;SDS011;38827;53.024;6.596;2023-07-13T00:09:25;13.48;;;2.80;;
52962;SDS011;38827;53.024;6.596;2023-07-13T00:11:52;11.25;;;2.33;;
52962;SDS011;38827;53.024;6.596;2023-07-13T00:14:20;11.45;;;2.97;;
52962;SDS011;38827;53.024;6.596;2023-07-13T00:16:46;9.52;;;2.65;;
52962;SDS011;38827;53.024;6.596;2023-07-13T00:19:12;10.35;;;2.47;;
52962;SDS011;38827;53.024;6.596;2023-07-13T00:21:39;8.40;;;2.42;;
52962;SDS011;38827;53.024;6.596;2023-07-13T00:24:10;13.10;;;2.50;;
52962;SDS011;38827;53.024;6.596;2023-07-13T00:26:48;9.63;;;2.45;;
52962;SDS011;38827;53.024;6.596;2023-07-13T00:29:14;9.20;;;2.63;;
52962;SDS011;38827;53.024;6.596;2023-07-13T00:31:41;11.55;;;2.72;;
52962;SDS011;38827;53.024;6.596;2023-07-13T00:34:08;13.55;;;3.00;;
52962;SDS011;38827;53.024;6.596;2023-07-13T00:36:34;11.23;;;2.85;;
52962;SDS011;38827;53.024;6.596;2023-07-13T00:39:01;11.57;;;2.33;;
52962;SDS011;38827;53.024;6.596;2023-07-13T00:41:29;10.25;;;2.65;;
52962;SDS011;38827;53.024;6.596;2023-07-13T00:51:17;9.02;;;2.33;;
52962;SDS011;38827;53.024;6.596;2023-07-13T01:04:33;15.05;;;2.70;;
52962;SDS011;38827;53.024;6.596;2023-07-13T01:07:06;14.05;;;3.08;;
52962;SDS011;38827;53.024;6.596;2023-07-13T01:13:17;12.65;;;2.72;;
52962;SDS011;38827;53.024;6.596;2023-07-13T01:22:56;18.00;;;3.28;;
52962;SDS011;38827;53.024;6.596;2023-07-13T01:25:22;14.43;;;3.25;;
52962;SDS011;38827;53.024;6.596;2023-07-13T01:27:48;14.15;;;3.55;;
52962;SDS011;38827;53.024;6.596;2023-07-13T01:30:20;11.05;;;2.83;;
52962;SDS011;38827;53.024;6.596;2023-07-13T01:32:45;12.68;;;2.70;;
52962;SDS011;38827;53.024;6.596;2023-07-13T01:45:40;14.45;;;3.70;;
52962;SDS011;38827;53.024;6.596;2023-07-13T01:48:05;13.82;;;2.92;;
52962;SDS011;38827;53.024;6.596;2023-07-13T02:11:15;10.52;;;2.83;;
52962;SDS011;38827;53.024;6.596;2023-07-13T02:13:41;11.27;;;3.30;;
52962;SDS011;38827;53.024;6.596;2023-07-13T02:16:13;13.60;;;3.20;;
52962;SDS011;38827;53.024;6.596;2023-07-13T02:25:22;11.18;;;2.72;;
52962;SDS011;38827;53.024;6.596;2023-07-13T02:30:54;13.90;;;2.90;;
52962;SDS011;38827;53.024;6.596;2023-07-13T02:37:00;11.25;;;2.75;;
52962;SDS011;38827;53.024;6.596;2023-07-13T02:39:26;11.00;;;2.83;;
52962;SDS011;38827;53.024;6.596;2023-07-13T02:41:52;17.60;;;3.10;;
52962;SDS011;38827;53.024;6.596;2023-07-13T02:47:41;18.23;;;3.92;;
52962;SDS011;38827;53.024;6.596;2023-07-13T02:50:07;9.82;;;3.20;;
52962;SDS011;38827;53.024;6.596;2023-07-13T02:52:33;8.33;;;2.93;;
52962;SDS011;38827;53.024;6.596;2023-07-13T02:54:59;16.90;;;3.63;;
52962;SDS011;38827;53.024;6.596;2023-07-13T02:57:25;13.85;;;3.10;;
52962;SDS011;38827;53.024;6.596;2023-07-13T02:59:50;11.18;;;3.00;;
52962;SDS011;38827;53.024;6.596;2023-07-13T03:02:16;13.13;;;3.60;;
52962;SDS011;38827;53.024;6.596;2023-07-13T03:04:42;10.70;;;3.05;;
52962;SDS011;38827;53.024;6.596;2023-07-13T03:07:08;15.95;;;3.25;;
52962;SDS011;38827;53.024;6.596;2023-07-13T03:09:34;13.73;;;3.60;;
52962;SDS011;38827;53.024;6.596;2023-07-13T03:12:00;13.48;;;3.20;;
52962;SDS011;38827;53.024;6.596;2023-07-13T03:14:26;9.10;;;3.10;;
52962;SDS011;38827;53.024;6.596;2023-07-13T03:16:52;14.40;;;3.45;;
52962;SDS011;38827;53.024;6.596;2023-07-13T03:19:18;15.95;;;3.47;;
52962;SDS011;38827;53.024;6.596;2023-07-13T03:21:43;15.18;;;4.07;;
52962;SDS011;38827;53.024;6.596;2023-07-13T03:24:09;17.10;;;3.70;;
52962;SDS011;38827;53.024;6.596;2023-07-13T03:26:35;16.60;;;4.15;;
52962;SDS011;38827;53.024;6.596;2023-07-13T03:29:01;14.27;;;3.58;;
52962;SDS011;38827;53.024;6.596;2023-07-13T03:31:34;14.23;;;3.60;;
52962;SDS011;38827;53.024;6.596;2023-07-13T03:34:02;14.95;;;3.72;;
52962;SDS011;38827;53.024;6.596;2023-07-13T03:36:28;12.48;;;3.20;;
52962;SDS011;38827;53.024;6.596;2023-07-13T03:38:57;14.90;;;3.95;;
52962;SDS011;38827;53.024;6.596;2023-07-13T03:41:24;12.68;;;3.10;;
52962;SDS011;38827;53.024;6.596;2023-07-13T03:43:50;13.43;;;4.00;;
52962;SDS011;38827;53.024;6.596;2023-07-13T03:46:17;17.43;;;4.00;;
52962;SDS011;38827;53.024;6.596;2023-07-13T03:48:46;14.75;;;3.40;;
52962;SDS011;38827;53.024;6.596;2023-07-13T03:51:13;13.05;;;3.67;;
52962;SDS011;38827;53.024;6.596;2023-07-13T03:53:41;16.08;;;3.65;;
52962;SDS011;38827;53.024;6.596;2023-07-13T04:03:28;14.02;;;3.25;;
52962;SDS011;38827;53.024;6.596;2023-07-13T04:05:55;10.98;;;3.40;;
52962;SDS011;38827;53.024;6.596;2023-07-13T04:08:28;13.23;;;3.42;;
52962;SDS011;38827;53.024;6.596;2023-07-13T04:10:58;15.75;;;3.80;;
52962;SDS011;38827;53.024;6.596;2023-07-13T04:13:24;13.83;;;3.50;;
52962;SDS011;38827;53.024;6.596;2023-07-13T04:15:51;12.20;;;3.38;;
52962;SDS011;38827;53.024;6.596;2023-07-13T04:18:17;9.70;;;2.90;;
52962;SDS011;38827;53.024;6.596;2023-07-13T04:20:44;12.95;;;3.22;;
52962;SDS011;38827;53.024;6.596;2023-07-13T04:23:14;10.25;;;3.42;;
52962;SDS011;38827;53.024;6.596;2023-07-13T04:25:45;13.98;;;4.18;;
52962;SDS011;38827;53.024;6.596;2023-07-13T04:28:11;14.20;;;3.78;;
52962;SDS011;38827;53.024;6.596;2023-07-13T04:30:36;9.38;;;2.95;;
52962;SDS011;38827;53.024;6.596;2023-07-13T04:33:02;12.93;;;3.50;;
52962;SDS011;38827;53.024;6.596;2023-07-13T04:37:56;11.77;;;3.72;;
52962;SDS011;38827;53.024;6.596;2023-07-13T04:40:22;12.93;;;3.40;;
52962;SDS011;38827;53.024;6.596;2023-07-13T04:42:47;11.63;;;3.10;;
52962;SDS011;38827;53.024;6.596;2023-07-13T04:45:14;12.65;;;3.65;;
52962;SDS011;38827;53.024;6.596;2023-07-13T04:47:42;12.85;;;3.35;;
52962;SDS011;38827;53.024;6.596;2023-07-13T04:50:09;12.75;;;3.78;;
52962;SDS011;38827;53.024;6.596;2023-07-13T04:52:40;11.63;;;3.42;;
52962;SDS011;38827;53.024;6.596;2023-07-13T04:55:08;11.75;;;3.63;;
52962;SDS011;38827;53.024;6.596;2023-07-13T04:57:33;11.05;;;3.22;;
52962;SDS011;38827;53.024;6.596;2023-07-13T05:00:01;14.13;;;3.10;;
52962;SDS011;38827;53.024;6.596;2023-07-13T05:02:30;9.82;;;3.17;;
52962;SDS011;38827;53.024;6.596;2023-07-13T05:04:57;10.80;;;3.33;;
52962;SDS011;38827;53.024;6.596;2023-07-13T05:07:24;15.70;;;4.20;;
52962;SDS011;38827;53.024;6.596;2023-07-13T05:09:50;12.48;;;3.45;;
52962;SDS011;38827;53.024;6.596;2023-07-13T05:12:16;12.82;;;3.67;;
52962;SDS011;38827;53.024;6.596;2023-07-13T05:14:42;14.27;;;3.15;;
52962;SDS011;38827;53.024;6.596;2023-07-13T05:17:08;11.82;;;3.38;;
52962;SDS011;38827;53.024;6.596;2023-07-13T05:19:33;13.57;;;3.83;;
52962;SDS011;38827;53.024;6.596;2023-07-13T05:24:33;11.38;;;3.25;;
52962;SDS011;38827;53.024;6.596;2023-07-13T05:37:21;12.18;;;3.58;;
52962;SDS011;38827;53.024;6.596;2023-07-13T05:40:05;15.32;;;3.33;;
52962;SDS011;38827;53.024;6.596;2023-07-13T06:02:32;10.20;;;2.95;;
52962;SDS011;38827;53.024;6.596;2023-07-13T06:04:59;11.32;;;3.10;;
52962;SDS011;38827;53.024;6.596;2023-07-13T06:07:25;11.95;;;3.05;;
52962;SDS011;38827;53.024;6.596;2023-07-13T06:13:09;11.27;;;3.08;;
52962;SDS011;38827;53.024;6.596;2023-07-13T06:19:12;11.40;;;2.97;;
52962;SDS011;38827;53.024;6.596;2023-07-13T06:21:37;11.30;;;2.92;;
52962;SDS011;38827;53.024;6.596;2023-07-13T06:24:03;9.50;;;2.90;;
52962;SDS011;38827;53.024;6.596;2023-07-13T06:39:45;11.27;;;2.80;;
52962;SDS011;38827;53.024;6.596;2023-07-13T06:48:37;12.52;;;2.67;;
52962;SDS011;38827;53.024;6.596;2023-07-13T06:51:08;11.70;;;2.67;;
52962;SDS011;38827;53.024;6.596;2023-07-13T06:53:34;12.32;;;2.90;;
52962;SDS011;38827;53.024;6.596;2023-07-13T06:56:14;9.32;;;2.22;;
52962;SDS011;38827;53.024;6.596;2023-07-13T06:58:40;7.85;;;2.55;;
52962;SDS011;38827;53.024;6.596;2023-07-13T07:01:20;9.77;;;2.40;;
52962;SDS011;38827;53.024;6.596;2023-07-13T07:03:55;10.18;;;2.65;;
52962;SDS011;38827;53.024;6.596;2023-07-13T07:06:24;8.40;;;2.30;;
52962;SDS011;38827;53.024;6.596;2023-07-13T07:08:51;11.25;;;2.60;;
52962;SDS011;38827;53.024;6.596;2023-07-13T07:11:24;9.55;;;2.65;;
52962;SDS011;38827;53.024;6.596;2023-07-13T07:13:51;8.57;;;2.20;;
52962;SDS011;38827;53.024;6.596;2023-07-13T07:16:18;9.60;;;2.15;;
52962;SDS011;38827;53.024;6.596;2023-07-13T07:18:51;9.25;;;2.42;;
52962;SDS011;38827;53.024;6.596;2023-07-13T07:21:17;6.72;;;2.28;;
52962;SDS011;38827;53.024;6.596;2023-07-13T07:23:43;10.57;;;2.60;;
52962;SDS011;38827;53.024;6.596;2023-07-13T07:26:15;7.88;;;2.40;;
52962;SDS011;38827;53.024;6.596;2023-07-13T07:31:56;10.00;;;2.25;;
52962;SDS011;38827;53.024;6.596;2023-07-13T07:34:21;7.20;;;2.40;;
52962;SDS011;38827;53.024;6.596;2023-07-13T07:55:44;9.80;;;2.90;;
52962;SDS011;38827;53.024;6.596;2023-07-13T07:58:25;8.23;;;2.17;;
52962;SDS011;38827;53.024;6.596;2023-07-13T08:00:51;9.73;;;2.63;;
52962;SDS011;38827;53.024;6.596;2023-07-13T08:03:20;9.87;;;2.43;;
52962;SDS011;38827;53.024;6.596;2023-07-13T08:06:04;9.50;;;2.30;;
52962;SDS011;38827;53.024;6.596;2023-07-13T08:08:45;9.55;;;2.30;;
52962;SDS011;38827;53.024;6.596;2023-07-13T08:11:11;7.88;;;2.72;;
52962;SDS011;38827;53.024;6.596;2023-07-13T08:13:55;8.10;;;2.47;;
52962;SDS011;38827;53.024;6.596;2023-07-13T08:19:17;9.05;;;3.08;;
52962;SDS011;38827;53.024;6.596;2023-07-13T08:28:29;9.32;;;3.10;;
52962;SDS011;38827;53.024;6.596;2023-07-13T08:33:57;7.68;;;2.72;;
52962;SDS011;38827;53.024;6.596;2023-07-13T08:36:50;8.43;;;3.00;;
52962;SDS011;38827;53.024;6.596;2023-07-13T08:49:53;15.10;;;4.15;;
52962;SDS011;38827;53.024;6.596;2023-07-13T08:55:24;7.13;;;2.33;;
52962;SDS011;38827;53.024;6.596;2023-07-13T09:01:17;8.00;;;2.38;;
52962;SDS011;38827;53.024;6.596;2023-07-13T09:15:53;9.80;;;2.20;;
52962;SDS011;38827;53.024;6.596;2023-07-13T09:21:31;4.88;;;1.70;;
52962;SDS011;38827;53.024;6.596;2023-07-13T09:24:01;4.50;;;2.25;;
52962;SDS011;38827;53.024;6.596;2023-07-13T09:26:49;5.97;;;2.30;;
52962;SDS011;38827;53.024;6.596;2023-07-13T09:29:37;7.28;;;2.60;;
52962;SDS011;38827;53.024;6.596;2023-07-13T09:32:06;9.32;;;2.42;;
52962;SDS011;38827;53.024;6.596;2023-07-13T09:34:35;5.18;;;2.30;;
52962;SDS011;38827;53.024;6.596;2023-07-13T09:37:01;6.93;;;2.33;;
52962;SDS011;38827;53.024;6.596;2023-07-13T09:39:31;6.68;;;2.40;;
52962;SDS011;38827;53.024;6.596;2023-07-13T09:42:15;5.30;;;2.30;;
52962;SDS011;38827;53.024;6.596;2023-07-13T09:44:55;6.65;;;2.40;;
52962;SDS011;38827;53.024;6.596;2023-07-13T09:47:27;7.32;;;2.85;;
52962;SDS011;38827;53.024;6.596;2023-07-13T09:50:00;6.32;;;2.50;;
52962;SDS011;38827;53.024;6.596;2023-07-13T09:52:42;5.22;;;2.35;;
52962;SDS011;38827;53.024;6.596;2023-07-13T09:55:23;5.95;;;2.20;;
52962;SDS011;38827;53.024;6.596;2023-07-13T09:57:50;5.65;;;2.20;;
52962;SDS011;38827;53.024;6.596;2023-07-13T10:00:27;5.50;;;2.20;;
52962;SDS011;38827;53.024;6.596;2023-07-13T10:03:00;5.57;;;2.22;;
52962;SDS011;38827;53.024;6.596;2023-07-13T10:05:36;5.10;;;2.13;;
52962;SDS011;38827;53.024;6.596;2023-07-13T10:08:03;4.65;;;2.20;;
52962;SDS011;38827;53.024;6.596;2023-07-13T10:10:32;5.72;;;2.05;;
52962;SDS011;38827;53.024;6.596;2023-07-13T10:48:31;5.38;;;2.30;;
52962;SDS011;38827;53.024;6.596;2023-07-13T10:57:21;4.32;;;2.17;;
52962;SDS011;38827;53.024;6.596;2023-07-13T11:02:42;5.87;;;2.27;;
52962;SDS011;38827;53.024;6.596;2023-07-13T11:11:32;5.70;;;1.80;;
52962;SDS011;38827;53.024;6.596;2023-07-13T11:21:27;4.68;;;1.52;;
52962;SDS011;38827;53.024;6.596;2023-07-13T12:05:13;4.28;;;1.13;;
52962;SDS011;38827;53.024;6.596;2023-07-13T12:14:39;3.65;;;1.10;;
52962;SDS011;38827;53.024;6.596;2023-07-13T12:17:08;3.10;;;1.23;;
52962;SDS011;38827;53.024;6.596;2023-07-13T12:20:30;2.90;;;1.10;;
52962;SDS011;38827;53.024;6.596;2023-07-13T12:29:59;3.40;;;1.00;;
52962;SDS011;38827;53.024;6.596;2023-07-13T13:15:37;4.35;;;1.27;;
52962;SDS011;38827;53.024;6.596;2023-07-13T13:27:30;5.13;;;1.30;;
52962;SDS011;38827;53.024;6.596;2023-07-13T13:43:32;3.53;;;0.95;;
52962;SDS011;38827;53.024;6.596;2023-07-13T13:46:13;3.83;;;1.40;;
52962;SDS011;38827;53.024;6.596;2023-07-13T13:57:05;2.72;;;0.93;;
52962;SDS011;38827;53.024;6.596;2023-07-13T14:32:41;4.07;;;1.38;;
52962;SDS011;38827;53.024;6.596;2023-07-13T14:35:10;1.63;;;0.93;;
52962;SDS011;38827;53.024;6.596;2023-07-13T14:37:46;3.63;;;1.38;;
52962;SDS011;38827;53.024;6.596;2023-07-13T14:43:46;3.20;;;1.07;;
52962;SDS011;38827;53.024;6.596;2023-07-13T14:52:25;4.35;;;1.40;;
52962;SDS011;38827;53.024;6.596;2023-07-13T16:04:35;5.60;;;1.58;;
52962;SDS011;38827;53.024;6.596;2023-07-13T16:51:21;5.13;;;1.20;;
52962;SDS011;38827;53.024;6.596;2023-07-13T17:00:08;4.38;;;1.50;;
52962;SDS011;38827;53.024;6.596;2023-07-13T19:01:42;6.20;;;2.35;;
52962;SDS011;38827;53.024;6.596;2023-07-13T19:39:48;7.40;;;2.80;;
52962;SDS011;38827;53.024;6.596;2023-07-13T19:53:43;5.70;;;2.30;;
52962;SDS011;38827;53.024;6.596;2023-07-13T19:56:27;7.35;;;2.20;;
52962;SDS011;38827;53.024;6.596;2023-07-13T20:09:22;10.43;;;3.10;;
52962;SDS011;38827;53.024;6.596;2023-07-13T20:12:10;4.97;;;2.10;;
52962;SDS011;38827;53.024;6.596;2023-07-13T20:14:47;4.50;;;2.40;;
52962;SDS011;38827;53.024;6.596;2023-07-13T20:17:46;4.90;;;2.40;;
52962;SDS011;38827;53.024;6.596;2023-07-13T20:47:03;6.00;;;2.45;;
52962;SDS011;38827;53.024;6.596;2023-07-13T20:52:44;5.30;;;2.85;;
52962;SDS011;38827;53.024;6.596;2023-07-13T20:55:39;10.88;;;3.22;;
52962;SDS011;38827;53.024;6.596;2023-07-13T21:08:23;6.00;;;2.70;;
52962;SDS011;38827;53.024;6.596;2023-07-13T21:14:54;8.27;;;3.30;;
52962;SDS011;38827;53.024;6.596;2023-07-13T21:17:38;7.70;;;3.10;;
52962;SDS011;38827;53.024;6.596;2023-07-13T21:34:25;4.97;;;2.63;;
52962;SDS011;38827;53.024;6.596;2023-07-13T21:36:50;5.05;;;2.70;;
52962;SDS011;38827;53.024;6.596;2023-07-13T21:39:36;6.78;;;3.08;;
52962;SDS011;38827;53.024;6.596;2023-07-13T21:48:25;5.88;;;2.90;;
52962;SDS011;38827;53.024;6.596;2023-07-13T21:51:20;6.00;;;2.85;;
52962;SDS011;38827;53.024;6.596;2023-07-13T21:53:51;8.25;;;3.20;;
52962;SDS011;38827;53.024;6.596;2023-07-13T21:59:45;5.15;;;2.60;;
52962;SDS011;38827;53.024;6.596;2023-07-13T22:02:23;7.68;;;3.13;;
52962;SDS011;38827;53.024;6.596;2023-07-13T22:32:31;6.35;;;3.15;;
52962;SDS011;38827;53.024;6.596;2023-07-13T22:35:39;5.47;;;3.70;;
52962;SDS011;38827;53.024;6.596;2023-07-13T22:38:24;6.07;;;3.50;;
52962;SDS011;38827;53.024;6.596;2023-07-13T22:40:58;8.48;;;4.43;;
52962;SDS011;38827;53.024;6.596;2023-07-13T22:43:33;8.35;;;4.00;;
52962;SDS011;38827;53.024;6.596;2023-07-13T22:49:53;9.60;;;4.30;;
52962;SDS011;38827;53.024;6.596;2023-07-13T22:57:36;8.90;;;4.20;;
52962;SDS011;38827;53.024;6.596;2023-07-13T23:00:55;5.95;;;4.18;;
52962;SDS011;38827;53.024;6.596;2023-07-13T23:03:42;6.72;;;4.05;;
52962;SDS011;38827;53.024;6.596;2023-07-13T23:06:15;7.40;;;3.83;;
52962;SDS011;38827;53.024;6.596;2023-07-13T23:38:08;8.63;;;4.72;;
52962;SDS011;38827;53.024;6.596;2023-07-13T23:47:02;9.32;;;6.07;;
52962;SDS011;38827;53.024;6.596;2023-07-13T23:49:29;8.65;;;5.30;;
52962;SDS011;38827;53.024;6.596;2023-07-13T23:52:11;7.85;;;5.35;;
52962;SDS011;38827;53.024;6.596;2023-07-13T23:54:37;9.95;;;5.72;;
52962;SDS011;38827;53.024;6.596;2023-07-13T23:57:03;8.20;;;6.15;;
52962;SDS011;38827;53.024;6.596;2023-07-13T23:59:33;9.00;;;6.32;;
